Time;durP1;ratioP1;P1;durP2;ratioP2;P2;SDS_P1;SDS_P2;PMS_P1;PMS_P2;Temp;Humidity;BMP_temperature;BMP_pressure;BME280_temperature;BME280_humidity;BME280_pressure;Samples;Min_cycle;Max_cycle;Signal;HPM_P1;HPM_P2
2023/01/06 00:00:46;;;;;;;4.60;3.15;;;;;;;12.42;75.76;100588.19;5071764;28;20061;-49
2023/01/06 00:03:14;;;;;;;4.07;2.83;;;;;;;12.44;75.66;100593.47;5072423;28;20063;-50
2023/01/06 00:05:42;;;;;;;5.78;3.05;;;;;;;12.44;75.37;100585.09;5071936;28;20055;-49
2023/01/06 00:08:10;;;;;;;4.65;3.17;;;;;;;12.38;74.60;100582.44;5072219;28;20056;-52
2023/01/06 00:10:37;;;;;;;5.10;3.35;;;;;;;12.38;74.33;100581.59;5071730;28;20048;-50
2023/01/06 00:13:04;;;;;;;4.63;2.60;;;;;;;12.45;74.39;100583.94;5064502;28;20057;-50
2023/01/06 00:15:32;;;;;;;3.70;2.15;;;;;;;12.43;73.30;100580.63;5072139;28;20432;-53
2023/01/06 00:18:00;;;;;;;3.03;2.38;;;;;;;12.47;72.91;100590.00;5071887;28;20063;-52
2023/01/06 00:20:30;;;;;;;5.57;2.45;;;;;;;12.53;72.78;100583.94;5072570;28;20060;-51
2023/01/06 00:22:59;;;;;;;5.07;2.22;;;;;;;12.50;72.70;100601.38;5072578;28;20057;-51
2023/01/06 00:25:29;;;;;;;4.40;1.83;;;;;;;12.39;71.76;100588.84;5072041;28;20071;-50
2023/01/06 00:27:57;;;;;;;4.03;1.80;;;;;;;12.35;71.93;100594.25;5063482;28;20059;-51
2023/01/06 00:30:24;;;;;;;4.55;1.73;;;;;;;12.37;71.81;100585.56;5072084;28;20052;-48
2023/01/06 00:32:51;;;;;;;3.80;2.25;;;;;;;12.26;71.66;100584.19;5071986;28;20404;-53
2023/01/06 00:35:18;;;;;;;6.15;1.90;;;;;;;12.29;72.87;100575.19;5070409;28;20396;-53
2023/01/06 00:37:46;;;;;;;4.32;2.40;;;;;;;12.23;72.81;100574.50;5051380;28;20057;-52
2023/01/06 00:40:15;;;;;;;4.20;1.73;;;;;;;12.24;72.47;100564.16;5051914;28;20060;-53
2023/01/06 00:42:43;;;;;;;3.63;1.60;;;;;;;12.15;72.79;100566.91;5060062;28;20598;-51
2023/01/06 00:45:11;;;;;;;5.80;1.80;;;;;;;12.16;72.91;100568.56;5070992;28;20064;-54
2023/01/06 00:47:41;;;;;;;3.92;1.70;;;;;;;12.08;74.08;100567.38;5071753;28;20064;-49
2023/01/06 00:50:08;;;;;;;3.78;2.00;;;;;;;12.09;73.48;100560.63;5071571;28;20078;-51
2023/01/06 00:52:36;;;;;;;3.53;2.22;;;;;;;12.07;74.54;100559.31;5061133;28;20049;-53
2023/01/06 00:55:03;;;;;;;2.90;1.80;;;;;;;12.05;74.16;100550.44;5052089;28;20049;-53
2023/01/06 00:57:32;;;;;;;4.20;1.77;;;;;;;11.94;73.97;100549.91;5062048;28;20059;-52
2023/01/06 00:59:59;;;;;;;5.95;1.88;;;;;;;12.08;74.70;100550.63;5071481;28;20444;-53
2023/01/06 01:02:29;;;;;;;3.58;1.48;;;;;;;12.11;73.79;100549.16;5074752;28;20053;-48
2023/01/06 01:04:57;;;;;;;4.65;1.92;;;;;;;11.97;73.40;100541.72;5075429;28;20055;-49
2023/01/06 01:07:24;;;;;;;3.67;1.60;;;;;;;12.07;73.81;100542.56;5074969;28;20054;-51
2023/01/06 01:09:51;;;;;;;2.88;1.35;;;;;;;12.07;73.26;100545.34;5052729;28;20063;-49
2023/01/06 01:12:18;;;;;;;4.70;1.60;;;;;;;12.00;73.60;100548.63;5060327;28;20052;-51
2023/01/06 01:14:50;;;;;;;4.70;1.70;;;;;;;12.09;73.17;100545.88;5075026;28;20059;-52
2023/01/06 01:17:19;;;;;;;4.28;1.45;;;;;;;12.08;73.12;100550.63;5072745;28;20048;-50
2023/01/06 01:19:49;;;;;;;4.05;1.40;;;;;;;12.08;72.67;100555.41;5074752;28;20405;-52
2023/01/06 01:22:17;;;;;;;4.18;1.42;;;;;;;12.16;72.21;100546.22;5075150;28;20056;-52
2023/01/06 01:24:44;;;;;;;3.90;1.50;;;;;;;12.19;72.53;100537.19;5074828;28;20052;-51
2023/01/06 01:27:11;;;;;;;3.28;1.40;;;;;;;12.25;71.77;100543.47;5067386;28;20367;-53
2023/01/06 01:29:39;;;;;;;2.65;1.27;;;;;;;12.22;71.90;100544.94;5074338;28;20489;-53
2023/01/06 01:32:08;;;;;;;2.80;1.33;;;;;;;12.11;71.75;100547.19;5074824;28;20053;-50
2023/01/06 01:34:35;;;;;;;3.75;1.83;;;;;;;12.15;71.53;100550.97;5074813;28;20075;-50
2023/01/06 01:37:02;;;;;;;3.58;1.60;;;;;;;12.21;71.83;100548.03;5058733;28;20053;-51
2023/01/06 01:39:31;;;;;;;4.00;1.80;;;;;;;12.21;71.37;100542.47;5054586;28;20053;-52
2023/01/06 01:41:59;;;;;;;4.25;1.90;;;;;;;12.09;71.43;100543.88;5060592;28;20055;-50
2023/01/06 01:44:53;;;;;;;3.60;1.80;;;;;;;12.14;70.98;100538.16;5071314;28;20056;-51
2023/01/06 01:47:28;;;;;;;3.30;1.40;;;;;;;12.19;70.68;100540.81;5074444;28;20064;-51
2023/01/06 01:50:00;;;;;;;3.85;1.42;;;;;;;12.13;70.04;100542.09;5074018;28;20057;-53
2023/01/06 01:52:28;;;;;;;4.82;1.63;;;;;;;12.18;70.92;100547.53;5074746;28;20056;-52
2023/01/06 01:54:56;;;;;;;2.55;1.35;;;;;;;12.24;69.96;100539.00;5063283;28;20052;-53
2023/01/06 01:57:27;;;;;;;2.90;1.50;;;;;;;12.22;70.13;100544.94;5074356;28;20056;-51
2023/01/06 02:00:00;;;;;;;4.03;1.60;;;;;;;12.24;69.91;100548.22;5074015;28;20064;-52
2023/01/06 02:02:30;;;;;;;3.50;1.50;;;;;;;12.07;70.56;100537.81;5074319;28;20048;-54
2023/01/06 02:04:59;;;;;;;3.67;1.63;;;;;;;12.16;69.16;100530.28;5072682;28;20071;-51
2023/01/06 02:07:27;;;;;;;4.90;1.52;;;;;;;12.08;69.68;100539.47;5073996;28;20052;-53
2023/01/06 02:10:11;;;;;;;4.53;1.67;;;;;;;12.04;69.63;100530.09;5071513;28;20073;-53
2023/01/06 02:12:39;;;;;;;3.67;1.90;;;;;;;11.97;69.15;100532.53;5069652;28;20064;-49
2023/01/06 02:15:16;;;;;;;3.08;1.40;;;;;;;12.09;69.30;100529.09;5073781;28;20059;-53
2023/01/06 02:18:17;;;;;;;2.45;1.40;;;;;;;12.19;69.08;100518.47;5073759;28;20401;-49
2023/01/06 02:20:57;;;;;;;2.63;1.20;;;;;;;12.18;69.36;100516.00;5073805;28;20053;-48
2023/01/06 02:23:58;;;;;;;2.63;1.40;;;;;;;12.12;68.99;100518.13;5072424;28;20055;-51
2023/01/06 02:27:19;;;;;;;3.90;1.63;;;;;;;12.24;68.84;100503.56;5063782;28;20056;-49
2023/01/06 02:30:19;;;;;;;3.17;1.27;;;;;;;12.14;68.64;100509.44;5069935;28;20059;-49
2023/01/06 02:32:58;;;;;;;;;;;;;;;12.03;69.04;100506.09;5074159;28;20053;-51
2023/01/06 02:35:40;;;;;;;3.47;1.85;;;;;;;12.07;68.37;100506.28;5070820;28;19920;-52
2023/01/06 02:38:15;;;;;;;3.35;1.75;;;;;;;11.98;69.51;100506.25;5052675;28;20413;-53
2023/01/06 02:41:08;;;;;;;4.10;1.50;;;;;;;12.07;68.78;100509.88;5054119;28;20053;-53
2023/01/06 02:43:46;;;;;;;4.30;1.40;;;;;;;12.19;68.74;100489.72;5073577;28;20048;-50
2023/01/06 02:46:26;;;;;;;4.47;1.63;;;;;;;12.15;68.87;100495.13;5070344;28;20402;-50
2023/01/06 02:49:07;;;;;;;2.75;1.40;;;;;;;12.22;68.60;100486.28;5073320;28;20055;-50
2023/01/06 02:51:44;;;;;;;2.80;1.90;;;;;;;12.15;68.11;100489.53;5072720;28;20473;-52
2023/01/06 02:54:21;;;;;;;3.88;1.95;;;;;;;12.19;69.10;100478.56;5070838;28;20048;-51
2023/01/06 02:56:54;;;;;;;2.70;1.67;;;;;;;12.18;68.27;100488.91;5066562;28;20044;-49
2023/01/06 02:59:31;;;;;;;4.63;1.58;;;;;;;12.07;69.15;100475.56;5072762;28;20497;-55
2023/01/06 03:02:00;;;;;;;3.70;1.67;;;;;;;12.09;68.53;100473.28;5060260;28;20433;-53
2023/01/06 03:04:34;;;;;;;3.28;1.50;;;;;;;12.21;68.46;100476.25;5053210;28;20049;-48
2023/01/06 03:07:04;;;;;;;3.20;1.70;;;;;;;12.17;67.82;100480.84;5052689;28;20049;-52
2023/01/06 03:09:34;;;;;;;4.47;1.90;;;;;;;12.18;67.63;100466.56;5052144;28;20521;-54
2023/01/06 03:12:07;;;;;;;3.13;1.77;;;;;;;12.22;68.41;100466.75;5066337;28;20374;-53
2023/01/06 03:14:39;;;;;;;5.97;2.03;;;;;;;12.22;68.49;100472.34;5072895;28;20401;-52
2023/01/06 03:17:10;;;;;;;3.13;1.50;;;;;;;12.19;67.61;100473.78;5072606;28;20049;-53
2023/01/06 03:19:39;;;;;;;5.03;1.85;;;;;;;12.18;68.02;100471.34;5072880;28;20055;-52
2023/01/06 03:22:08;;;;;;;4.60;1.92;;;;;;;12.04;67.69;100476.22;5072440;28;20443;-52
2023/01/06 03:24:38;;;;;;;3.50;1.70;;;;;;;12.10;67.88;100461.78;5072291;28;20444;-53
2023/01/06 03:27:06;;;;;;;2.58;1.40;;;;;;;12.24;67.43;100458.88;5067717;28;20053;-52
2023/01/06 03:29:36;;;;;;;3.10;1.63;;;;;;;12.07;68.37;100454.03;5072588;28;20375;-53
2023/01/06 03:32:12;;;;;;;5.13;1.70;;;;;;;12.22;67.98;100454.72;5072295;28;20053;-50
2023/01/06 03:35:01;;;;;;;4.45;1.40;;;;;;;12.23;67.88;100442.44;5072610;28;20052;-50
2023/01/06 03:37:37;;;;;;;3.78;2.10;;;;;;;12.13;68.18;100451.94;5053008;28;20049;-51
2023/01/06 03:40:12;;;;;;;3.22;1.50;;;;;;;12.03;67.81;100458.63;5055360;28;20060;-49
2023/01/06 03:45:42;;;;;;;3.90;1.40;;;;;;;12.17;67.29;100453.75;5078485;28;20059;-51
2023/01/06 03:48:18;;;;;;;4.60;1.63;;;;;;;12.12;66.78;100456.69;5072667;28;20497;-53
2023/01/06 03:50:50;;;;;;;4.20;1.13;;;;;;;12.10;66.80;100461.78;5072192;28;20432;-52
2023/01/06 03:53:26;;;;;;;3.83;1.58;;;;;;;12.07;66.65;100454.03;5072656;28;20063;-49
2023/01/06 03:56:00;;;;;;;3.67;1.63;;;;;;;12.16;66.45;100451.28;5066251;28;20048;-51
2023/01/06 03:58:29;;;;;;;3.92;1.33;;;;;;;12.12;66.48;100448.31;5072581;28;20048;-51
2023/01/06 04:00:58;;;;;;;4.30;1.17;;;;;;;12.15;66.48;100453.25;5071730;28;20056;-52
2023/01/06 04:03:26;;;;;;;4.28;1.30;;;;;;;12.15;65.91;100450.44;5065815;28;20052;-51
2023/01/06 04:05:56;;;;;;;3.53;1.35;;;;;;;12.18;65.14;100466.56;5051864;28;20044;-51
2023/01/06 04:08:23;;;;;;;;;;;;;;;12.13;65.30;100458.31;5052533;28;20050;-49
2023/01/06 04:10:50;;;;;;;3.30;1.27;;;;;;;12.00;65.28;100462.09;5054852;28;20405;-51
2023/01/06 04:13:17;;;;;;;5.00;1.33;;;;;;;11.92;64.25;100449.75;5070424;28;20052;-50
2023/01/06 04:15:44;;;;;;;2.63;1.35;;;;;;;12.12;64.35;100445.53;5072059;28;20048;-52
2023/01/06 04:18:12;;;;;;;2.35;1.05;;;;;;;12.17;63.20;100444.53;5072381;28;20056;-51
2023/01/06 04:20:39;;;;;;;4.53;1.10;;;;;;;12.19;62.96;100443.06;5071938;28;20390;-51
2023/01/06 04:23:14;;;;;;;3.65;1.15;;;;;;;12.11;63.11;100438.28;5071901;28;20048;-53
2023/01/06 04:25:41;;;;;;;2.72;1.08;;;;;;;12.10;63.05;100433.06;5064730;28;20063;-52
2023/01/06 04:28:09;;;;;;;3.85;1.38;;;;;;;12.15;62.65;100442.06;5072272;28;20401;-51
2023/01/06 04:30:36;;;;;;;4.30;1.20;;;;;;;12.08;63.50;100424.19;5071906;28;20063;-49
2023/01/06 04:33:03;;;;;;;4.53;1.30;;;;;;;12.02;63.74;100420.72;5072065;28;20064;-53
2023/01/06 04:35:31;;;;;;;2.47;1.02;;;;;;;12.17;63.78;100417.44;5068601;28;20056;-49
2023/01/06 04:38:01;;;;;;;3.35;1.15;;;;;;;12.13;63.61;100408.06;5054685;28;20053;-55
2023/01/06 04:40:29;;;;;;;2.83;1.20;;;;;;;12.09;63.67;100417.44;5069952;28;20508;-54
2023/01/06 04:43:14;;;;;;;2.08;1.25;;;;;;;12.15;64.36;100402.16;5075498;28;20056;-48
2023/01/06 04:45:43;;;;;;;3.22;1.33;;;;;;;12.19;64.28;100401.19;5075658;28;20059;-52
2023/01/06 04:48:11;;;;;;;2.85;1.10;;;;;;;12.12;63.60;100411.22;5075633;28;20057;-51
2023/01/06 04:50:39;;;;;;;5.38;1.40;;;;;;;12.13;64.58;100408.06;5075743;28;20052;-49
2023/01/06 04:53:10;;;;;;;2.75;1.10;;;;;;;12.13;63.81;100384.91;5075458;28;20055;-49
2023/01/06 04:55:39;;;;;;;6.05;1.55;;;;;;;11.93;64.59;100378.00;5073309;28;20063;-53
2023/01/06 04:58:07;;;;;;;3.20;1.05;;;;;;;11.96;64.65;100375.38;5075357;28;20048;-51
2023/01/06 05:00:34;;;;;;;2.88;1.30;;;;;;;12.10;64.24;100380.81;5074996;28;20071;-50
2023/01/06 05:03:01;;;;;;;5.95;1.30;;;;;;;12.05;64.81;100378.16;5074848;28;20055;-51
2023/01/06 05:05:29;;;;;;;2.90;1.10;;;;;;;12.09;64.10;100384.75;5067051;28;20064;-53
2023/01/06 05:07:57;;;;;;;3.05;1.08;;;;;;;12.04;64.84;100375.72;5053983;28;20485;-50
2023/01/06 05:10:24;;;;;;;2.88;1.02;;;;;;;12.02;64.45;100370.47;5073686;28;20060;-52
2023/01/06 05:12:53;;;;;;;2.92;1.42;;;;;;;12.01;64.34;100363.25;5075022;28;20056;-53
2023/01/06 05:15:20;;;;;;;3.35;1.23;;;;;;;12.03;63.96;100363.72;5073197;28;20405;-52
2023/01/06 05:17:47;;;;;;;2.15;1.00;;;;;;;12.03;64.21;100355.34;5074952;28;20465;-53
2023/01/06 05:20:18;;;;;;;4.82;1.30;;;;;;;12.04;64.79;100353.38;5075090;28;20079;-52
2023/01/06 05:22:45;;;;;;;2.80;1.08;;;;;;;11.98;64.27;100358.31;5072862;28;20473;-52
2023/01/06 05:25:12;;;;;;;3.28;0.80;;;;;;;12.01;64.00;100370.78;5065211;28;20052;-48
2023/01/06 05:27:39;;;;;;;4.45;1.20;;;;;;;12.00;64.06;100357.97;5071255;28;20047;-51
2023/01/06 05:30:09;;;;;;;3.13;0.90;;;;;;;12.09;63.53;100369.97;5074402;28;20059;-48
2023/01/06 05:32:36;;;;;;;;;;;;;;;12.11;63.35;100357.31;5059840;28;20079;-49
2023/01/06 05:35:04;;;;;;;3.00;0.90;;;;;;;12.05;63.79;100374.56;5057950;28;19921;-49
2023/01/06 05:37:31;;;;;;;4.72;1.20;;;;;;;11.98;64.02;100356.31;5054369;28;20045;-48
2023/01/06 05:39:58;;;;;;;5.57;0.98;;;;;;;12.08;63.87;100354.38;5061631;28;20053;-47
2023/01/06 05:42:25;;;;;;;2.95;1.25;;;;;;;12.01;63.77;100354.88;5071968;28;20485;-51
2023/01/06 05:44:52;;;;;;;3.03;0.80;;;;;;;12.05;63.24;100360.59;5074339;28;20059;-49
2023/01/06 05:47:21;;;;;;;2.60;1.02;;;;;;;12.14;63.78;100373.44;5070350;28;20060;-53
2023/01/06 05:49:48;;;;;;;4.95;1.13;;;;;;;12.06;63.31;100356.69;5052991;28;20049;-52
2023/01/06 05:52:16;;;;;;;1.85;0.85;;;;;;;12.16;62.84;100359.16;5053252;28;20390;-49
2023/01/06 05:54:43;;;;;;;1.73;0.80;;;;;;;12.06;63.29;100365.06;5050197;28;20049;-50
2023/01/06 05:57:10;;;;;;;3.05;1.05;;;;;;;12.03;63.90;100366.50;5053464;28;20044;-51
2023/01/06 05:59:37;;;;;;;3.05;1.23;;;;;;;12.01;63.98;100380.00;5053040;28;20053;-51
2023/01/06 06:02:04;;;;;;;2.83;0.77;;;;;;;12.03;63.91;100376.84;5050769;28;20056;-51
2023/01/06 06:04:33;;;;;;;6.65;1.52;;;;;;;11.99;63.92;100376.72;5056399;28;20076;-50
2023/01/06 06:07:00;;;;;;;1.42;0.70;;;;;;;11.85;63.99;100387.97;5052684;28;20115;-50
2023/01/06 06:09:28;;;;;;;4.68;1.20;;;;;;;11.92;64.49;100374.38;5057377;28;20044;-48
2023/01/06 06:11:55;;;;;;;2.70;1.00;;;;;;;11.81;64.39;100372.22;5065650;28;20064;-51
2023/01/06 06:14:23;;;;;;;3.58;1.40;;;;;;;11.97;64.35;100363.06;5053180;28;20052;-50
2023/01/06 06:16:52;;;;;;;2.97;0.88;;;;;;;11.88;64.44;100390.13;5049380;28;20049;-48
2023/01/06 06:19:19;;;;;;;3.30;1.00;;;;;;;11.92;64.90;100362.41;5064156;28;20436;-52
2023/01/06 06:21:48;;;;;;;2.22;1.00;;;;;;;11.86;64.39;100374.84;5073559;28;20055;-49
2023/01/06 06:24:15;;;;;;;4.80;0.90;;;;;;;11.91;64.44;100371.94;5051270;28;20048;-50
2023/01/06 06:26:42;;;;;;;2.42;0.85;;;;;;;11.83;64.44;100367.13;5052397;28;20049;-50
2023/01/06 06:29:10;;;;;;;3.08;1.00;;;;;;;11.91;64.35;100367.16;5052673;28;20060;-49
2023/01/06 06:31:37;;;;;;;1.60;0.70;;;;;;;11.97;63.85;100365.88;5052068;28;20059;-51
2023/01/06 06:34:05;;;;;;;2.38;0.75;;;;;;;12.01;63.68;100366.03;5048974;28;20057;-51
2023/01/06 06:36:32;;;;;;;2.90;0.90;;;;;;;12.01;63.54;100370.78;5052347;28;20052;-52
2023/01/06 06:39:01;;;;;;;2.88;1.02;;;;;;;11.88;64.44;100383.69;5052125;28;20713;-52
2023/01/06 06:41:28;;;;;;;3.85;0.80;;;;;;;11.93;64.57;100362.06;5071988;28;20052;-51
2023/01/06 06:43:55;;;;;;;2.15;1.00;;;;;;;11.88;63.77;100365.00;5072385;28;20056;-52
2023/01/06 06:46:23;;;;;;;2.17;0.80;;;;;;;11.97;63.84;100351.09;5071133;28;20401;-52
2023/01/06 06:48:51;;;;;;;1.75;0.90;;;;;;;12.00;64.14;100357.97;5051923;28;20482;-53
2023/01/06 06:51:20;;;;;;;2.70;1.00;;;;;;;12.00;63.94;100364.38;5070814;28;20485;-53
2023/01/06 06:53:48;;;;;;;3.30;1.00;;;;;;;11.93;63.86;100364.06;5059221;28;20048;-53
2023/01/06 06:56:18;;;;;;;5.07;1.48;;;;;;;11.98;64.43;100366.69;5072665;28;20056;-51
2023/01/06 06:58:46;;;;;;;3.25;1.15;;;;;;;11.77;64.57;100366.44;5072882;28;20056;-52
2023/01/06 07:01:15;;;;;;;3.30;0.93;;;;;;;11.91;64.28;100371.94;5050531;28;20072;-52
2023/01/06 07:03:43;;;;;;;2.35;1.00;;;;;;;11.71;64.58;100376.13;5052616;28;20067;-51
2023/01/06 07:06:13;;;;;;;1.92;0.77;;;;;;;11.86;64.84;100372.03;5050474;28;20064;-50
2023/01/06 07:08:43;;;;;;;3.08;0.90;;;;;;;11.78;65.00;100368.09;5060564;28;20500;-51
2023/01/06 07:11:10;;;;;;;2.05;1.00;;;;;;;11.76;65.70;100364.81;5051722;28;20040;-52
2023/01/06 07:13:39;;;;;;;2.22;0.82;;;;;;;11.86;65.30;100358.09;5050883;28;20057;-50
2023/01/06 07:16:09;;;;;;;2.58;0.70;;;;;;;11.83;65.75;100353.97;5047534;28;20053;-50
2023/01/06 07:18:36;;;;;;;2.80;1.10;;;;;;;11.73;66.25;100355.09;5045875;28;20412;-51
2023/01/06 07:21:04;;;;;;;2.22;0.90;;;;;;;11.67;66.75;100353.59;5060767;28;20060;-53
2023/01/06 07:23:32;;;;;;;3.53;1.10;;;;;;;11.66;66.72;100354.78;5044112;28;20068;-49
2023/01/06 07:26:01;;;;;;;1.77;0.80;;;;;;;11.71;66.90;100359.38;5052112;28;20048;-52
2023/01/06 07:28:29;;;;;;;2.78;1.00;;;;;;;11.61;66.63;100354.09;5050721;28;20049;-52
2023/01/06 07:30:58;;;;;;;1.45;0.80;;;;;;;11.62;67.60;100356.56;5047769;28;20501;-52
2023/01/06 07:33:25;;;;;;;3.05;1.10;;;;;;;11.58;67.68;100352.78;5045360;28;20060;-48
2023/01/06 07:35:53;;;;;;;2.97;1.13;;;;;;;11.53;67.60;100355.72;5046155;28;20060;-53
2023/01/06 07:38:21;;;;;;;2.30;1.00;;;;;;;11.59;67.93;100354.44;5050928;28;20067;-52
2023/01/06 07:40:49;;;;;;;2.65;0.80;;;;;;;11.65;67.44;100355.09;5048844;28;20095;-52
2023/01/06 07:43:16;;;;;;;2.13;0.82;;;;;;;11.76;67.48;100348.88;5053974;28;20048;-50
2023/01/06 07:45:46;;;;;;;3.38;1.10;;;;;;;11.66;68.37;100365.94;5049572;28;20052;-52
2023/01/06 07:48:15;;;;;;;;;;;;;;;11.62;68.17;100359.34;5049239;28;20045;-50
2023/01/06 07:50:42;;;;;;;2.15;1.08;;;;;;;11.53;68.26;100339.81;5049867;28;19928;-50
2023/01/06 07:53:10;;;;;;;1.77;0.82;;;;;;;11.41;68.56;100359.13;5052910;28;20045;-52
2023/01/06 07:55:38;;;;;;;4.15;1.17;;;;;;;11.36;69.16;100350.94;5050176;28;20391;-53
2023/01/06 07:58:06;;;;;;;2.47;0.98;;;;;;;11.31;69.09;100349.06;5049326;28;20056;-48
2023/01/06 08:00:33;;;;;;;3.28;0.95;;;;;;;11.37;68.96;100345.00;5049255;28;20056;-50
2023/01/06 08:03:04;;;;;;;3.85;1.00;;;;;;;11.24;69.46;100340.38;5049421;28;20477;-49
2023/01/06 08:05:33;;;;;;;2.00;1.10;;;;;;;11.34;69.45;100336.47;5053558;28;20050;-49
2023/01/06 08:08:00;;;;;;;1.52;0.80;;;;;;;11.37;69.21;100342.22;5060911;28;20049;-53
2023/01/06 08:10:28;;;;;;;3.63;1.17;;;;;;;11.48;68.71;100348.31;5053600;28;20060;-54
2023/01/06 08:12:55;;;;;;;4.05;0.90;;;;;;;11.49;68.88;100344.41;5054528;28;20048;-53
2023/01/06 08:15:22;;;;;;;2.17;1.10;;;;;;;11.45;68.34;100350.94;5053851;28;20145;-51
2023/01/06 08:17:52;;;;;;;1.75;0.90;;;;;;;11.43;68.76;100344.88;5053764;28;20584;-53
2023/01/06 08:20:19;;;;;;;1.73;1.00;;;;;;;11.51;68.28;100338.50;5054691;28;20060;-50
2023/01/06 08:22:48;;;;;;;2.20;1.05;;;;;;;11.41;68.29;100349.94;5051603;28;20045;-54
2023/01/06 08:25:15;;;;;;;2.50;1.20;;;;;;;11.43;68.55;100350.44;5053694;28;20049;-48
2023/01/06 08:27:43;;;;;;;1.67;0.75;;;;;;;11.55;68.37;100348.69;5054743;28;20045;-49
2023/01/06 08:30:11;;;;;;;2.67;0.90;;;;;;;11.62;67.98;100359.34;5051405;28;20061;-49
2023/01/06 08:32:38;;;;;;;3.88;1.35;;;;;;;11.72;67.79;100356.25;5056126;28;20068;-52
2023/01/06 08:35:06;;;;;;;4.55;0.85;;;;;;;11.77;67.32;100364.47;5056559;28;20064;-53
2023/01/06 08:37:33;;;;;;;2.17;0.70;;;;;;;11.81;66.97;100361.03;5049927;28;20059;-52
2023/01/06 08:40:02;;;;;;;2.10;1.00;;;;;;;11.84;66.86;100360.38;5057350;28;20049;-52
2023/01/06 08:42:29;;;;;;;2.03;0.70;;;;;;;11.81;67.22;100373.03;5054002;28;20052;-53
2023/01/06 08:44:57;;;;;;;2.20;1.00;;;;;;;11.76;67.65;100364.81;5053970;28;20440;-52
2023/01/06 08:47:24;;;;;;;1.10;0.60;;;;;;;11.84;67.71;100383.53;5053506;28;20071;-53
2023/01/06 08:49:51;;;;;;;1.88;0.93;;;;;;;11.81;67.82;100386.97;5051511;28;20049;-53
2023/01/06 08:52:18;;;;;;;4.00;1.15;;;;;;;11.81;67.48;100384.19;5051339;28;20056;-53
2023/01/06 08:54:46;;;;;;;3.95;1.08;;;;;;;11.98;68.03;100389.00;5055189;28;20052;-54
2023/01/06 08:57:15;;;;;;;1.52;0.90;;;;;;;11.97;67.93;100396.56;5054420;28;20045;-52
2023/01/06 08:59:42;;;;;;;2.83;0.80;;;;;;;11.98;68.24;100417.72;5052483;28;20053;-54
2023/01/06 09:02:10;;;;;;;3.20;0.80;;;;;;;11.81;68.46;100416.84;5052795;28;20049;-52
2023/01/06 09:04:37;;;;;;;2.20;0.80;;;;;;;11.90;68.56;100420.50;5052752;28;20052;-54
2023/01/06 09:07:04;;;;;;;1.55;0.80;;;;;;;11.91;69.14;100416.59;5051586;28;20481;-54
2023/01/06 09:09:31;;;;;;;1.48;0.80;;;;;;;11.83;70.18;100420.16;5052654;28;20048;-53
2023/01/06 09:11:59;;;;;;;2.70;1.00;;;;;;;11.84;70.31;100419.81;5051650;28;20057;-52
2023/01/06 09:14:27;;;;;;;2.80;1.00;;;;;;;11.88;71.39;100414.41;5054852;28;20071;-53
2023/01/06 09:16:54;;;;;;;3.65;1.00;;;;;;;11.82;70.96;100418.47;5056299;28;20060;-52
2023/01/06 09:19:22;;;;;;;1.90;0.80;;;;;;;11.71;71.07;100416.00;5056263;28;20052;-53
2023/01/06 09:21:49;;;;;;;5.57;1.33;;;;;;;11.67;71.64;100411.38;5064730;28;20048;-52
2023/01/06 09:24:16;;;;;;;2.85;1.13;;;;;;;11.58;72.53;100423.34;5074829;28;20057;-53
2023/01/06 09:26:44;;;;;;;2.40;1.10;;;;;;;11.48;72.53;100414.44;5060606;28;20063;-53
2023/01/06 09:29:11;;;;;;;2.00;1.20;;;;;;;11.63;72.44;100416.78;5052921;28;20053;-53
2023/01/06 09:31:39;;;;;;;3.45;1.00;;;;;;;11.45;72.78;100420.69;5051031;28;20064;-53
2023/01/06 09:34:08;;;;;;;2.00;1.13;;;;;;;11.38;72.61;100435.06;5052843;28;20059;-52
2023/01/06 09:36:35;;;;;;;1.65;1.00;;;;;;;11.57;72.14;100435.66;5050604;28;20053;-51
2023/01/06 09:39:02;;;;;;;2.47;1.38;;;;;;;11.62;72.06;100443.06;5050284;28;20049;-52
2023/01/06 09:42:03;;;;;;;2.10;1.30;;;;;;;11.67;71.74;100440.09;5052704;28;20057;-54
2023/01/06 09:44:33;;;;;;;2.58;1.35;;;;;;;11.71;72.51;100446.69;5056276;28;20509;-54
2023/01/06 09:47:03;;;;;;;3.22;1.48;;;;;;;11.51;72.99;100441.69;5051477;28;20049;-56
2023/01/06 09:49:40;;;;;;;1.67;1.30;;;;;;;11.64;72.74;100437.97;5046602;28;20048;-51
2023/01/06 09:52:15;;;;;;;7.55;5.53;;;;;;;11.74;72.47;100456.41;5051834;28;20425;-52
2023/01/06 09:54:48;;;;;;;2.47;1.90;;;;;;;11.84;72.97;100455.25;5046383;28;20512;-52
2023/01/06 09:57:20;;;;;;;2.30;1.58;;;;;;;11.94;72.96;100450.25;5051170;28;20068;-51
2023/01/06 09:59:52;;;;;;;2.72;1.80;;;;;;;11.83;72.71;100456.44;5051278;28;20045;-54
2023/01/06 10:02:26;;;;;;;1.80;1.30;;;;;;;11.95;72.74;100453.88;5051027;28;20149;-53
2023/01/06 10:04:55;;;;;;;2.78;1.50;;;;;;;12.01;73.18;100452.56;5051198;28;20057;-53
2023/01/06 10:07:29;;;;;;;2.63;1.33;;;;;;;11.98;72.98;100458.78;5052951;28;20049;-54
2023/01/06 10:10:12;;;;;;;2.90;1.58;;;;;;;11.93;73.65;100453.38;5051841;28;20049;-53
2023/01/06 10:12:53;;;;;;;2.40;1.50;;;;;;;11.75;74.57;100458.84;5051601;28;20060;-51
2023/01/06 10:15:28;;;;;;;2.78;1.90;;;;;;;11.84;75.68;100458.88;5050312;28;20053;-51
2023/01/06 10:18:11;;;;;;;2.70;1.60;;;;;;;11.96;74.81;100452.72;5052273;28;20056;-52
2023/01/06 10:21:08;;;;;;;2.42;1.60;;;;;;;11.84;75.24;100458.88;5053166;28;20053;-52
2023/01/06 10:23:52;;;;;;;2.83;1.45;;;;;;;11.96;74.86;100445.16;5042548;28;20505;-53
2023/01/06 10:26:28;;;;;;;2.47;1.67;;;;;;;11.82;75.76;100444.41;5052009;28;20053;-53
2023/01/06 10:29:05;;;;;;;2.85;1.90;;;;;;;11.77;75.18;100456.56;5041495;28;20076;-54
2023/01/06 10:31:37;;;;;;;2.60;1.83;;;;;;;11.89;75.21;100457.97;5051665;28;20401;-54
2023/01/06 10:34:16;;;;;;;2.95;1.77;;;;;;;11.92;75.29;100457.28;5043489;28;20067;-53
2023/01/06 10:36:46;;;;;;;2.75;1.95;;;;;;;11.92;75.54;100448.94;5050475;28;20413;-54
2023/01/06 10:39:17;;;;;;;2.38;1.98;;;;;;;11.95;75.79;100445.50;5045033;28;20409;-54
2023/01/06 10:41:52;;;;;;;1.95;1.75;;;;;;;11.97;75.76;100448.78;5051400;28;20041;-54
2023/01/06 10:44:20;;;;;;;3.15;2.20;;;;;;;12.00;75.82;100456.50;5049715;28;20059;-54
2023/01/06 10:46:48;;;;;;;3.60;1.80;;;;;;;12.14;75.15;100456.38;5051124;28;20057;-50
2023/01/06 10:49:21;;;;;;;2.72;2.10;;;;;;;12.12;75.43;100445.53;5054473;28;20045;-52
2023/01/06 10:51:51;;;;;;;2.65;1.75;;;;;;;12.12;75.66;100442.75;5050318;28;20045;-54
2023/01/06 10:54:23;;;;;;;;;;;;;;;12.22;74.75;100443.56;5049751;28;20045;-54
2023/01/06 10:56:54;;;;;;;2.88;1.70;;;;;;;12.27;74.41;100447.03;5050871;28;19928;-52
2023/01/06 10:59:22;;;;;;;2.55;1.60;;;;;;;12.30;74.75;100439.97;5049468;28;20048;-52
2023/01/06 11:01:52;;;;;;;2.25;1.67;;;;;;;12.28;74.27;100451.44;5048458;28;20489;-52
2023/01/06 11:04:20;;;;;;;1.88;1.52;;;;;;;12.35;73.63;100456.59;5060709;28;20059;-53
2023/01/06 11:06:51;;;;;;;1.55;1.30;;;;;;;12.30;74.31;100454.75;5054352;28;20446;-51
2023/01/06 11:09:25;;;;;;;1.80;1.50;;;;;;;12.44;74.36;100449.00;5047735;28;20482;-54
2023/01/06 11:11:54;;;;;;;1.98;1.30;;;;;;;12.50;73.81;100455.28;5051325;28;20049;-49
2023/01/06 11:14:26;;;;;;;3.05;1.40;;;;;;;12.51;73.14;100452.13;5048710;28;20057;-52
2023/01/06 11:17:01;;;;;;;1.88;0.88;;;;;;;12.62;72.07;100452.66;5048721;28;20053;-53
2023/01/06 11:19:40;;;;;;;1.90;1.60;;;;;;;12.62;71.17;100447.06;5046551;28;20044;-54
2023/01/06 11:22:33;;;;;;;2.97;1.00;;;;;;;12.68;71.05;100442.09;5049138;28;20406;-53
2023/01/06 11:25:01;;;;;;;2.05;0.95;;;;;;;12.71;70.35;100449.84;5044287;28;20068;-50
2023/01/06 11:27:28;;;;;;;2.22;1.13;;;;;;;12.86;70.04;100446.53;5049451;28;20481;-54
2023/01/06 11:29:55;;;;;;;2.33;1.33;;;;;;;13.06;70.47;100447.00;5047647;28;20075;-54
2023/01/06 11:32:26;;;;;;;2.90;1.40;;;;;;;13.20;70.05;100454.03;5046602;28;20049;-50
2023/01/06 11:34:58;;;;;;;2.33;0.95;;;;;;;13.28;68.21;100455.19;5045999;28;20060;-53
2023/01/06 11:37:37;;;;;;;2.20;1.17;;;;;;;13.31;68.46;100445.31;5049171;28;20382;-53
2023/01/06 11:40:16;;;;;;;1.92;1.20;;;;;;;13.27;67.96;100449.91;5045184;28;20075;-53
2023/01/06 11:42:47;;;;;;;1.88;1.08;;;;;;;13.30;67.16;100455.69;5049628;28;20059;-52
2023/01/06 11:45:31;;;;;;;3.95;1.40;;;;;;;13.35;68.16;100449.91;5052512;28;20067;-51